createdAt,value
2023-08-15T00:02:24.753Z,88.06
2023-08-15T00:04:51.792Z,88.40
2023-08-15T00:07:19.053Z,88.50
2023-08-15T00:09:46.416Z,88.52
2023-08-15T00:12:13.535Z,88.57
2023-08-15T00:14:42.461Z,88.33
2023-08-15T00:17:10.261Z,87.98
2023-08-15T00:19:37.418Z,88.18
2023-08-15T00:22:08.574Z,88.29
2023-08-15T00:24:35.769Z,88.57
2023-08-15T00:27:03.036Z,88.88
2023-08-15T00:29:30.667Z,89.28
2023-08-15T00:31:57.842Z,89.57
2023-08-15T00:34:24.968Z,89.16
2023-08-15T00:36:53.712Z,88.83
2023-08-15T00:39:20.745Z,88.45
2023-08-15T00:41:47.857Z,88.36
2023-08-15T00:44:15.056Z,88.04
2023-08-15T00:46:42.318Z,87.90
2023-08-15T00:49:09.458Z,87.96
2023-08-15T00:51:36.979Z,88.43
2023-08-15T00:54:04.296Z,89.17
2023-08-15T00:56:32.092Z,89.05
2023-08-15T00:58:59.962Z,88.38
2023-08-15T01:01:27.186Z,88.66
2023-08-15T01:03:54.494Z,88.74
2023-08-15T01:06:22.706Z,89.05
2023-08-15T01:08:49.830Z,89.27
2023-08-15T01:11:16.996Z,89.10
2023-08-15T01:13:48.740Z,88.69
2023-08-15T01:16:29.669Z,88.30
2023-08-15T01:19:12.314Z,88.04
2023-08-15T01:21:42.301Z,87.69
2023-08-15T01:24:09.341Z,87.86
2023-08-15T01:26:36.650Z,87.99
2023-08-15T01:29:03.876Z,87.99
2023-08-15T01:31:45.417Z,87.83
2023-08-15T01:34:18.058Z,87.06
2023-08-15T01:36:49.867Z,86.82
2023-08-15T01:39:22.413Z,86.60
2023-08-15T01:41:49.474Z,86.53
2023-08-15T01:44:16.584Z,86.36
2023-08-15T01:46:48.106Z,86.17
2023-08-15T01:49:15.626Z,85.91
2023-08-15T01:51:43.130Z,85.81
2023-08-15T01:54:10.327Z,85.77
2023-08-15T01:56:38.184Z,85.44
2023-08-15T01:59:05.274Z,85.41
2023-08-15T02:01:32.494Z,85.62
2023-08-15T02:03:59.664Z,85.67
2023-08-15T02:06:26.822Z,85.29
2023-08-15T02:08:53.965Z,85.13
2023-08-15T02:11:22.824Z,85.01
2023-08-15T02:13:49.933Z,84.51
2023-08-15T02:16:19.493Z,84.96
2023-08-15T02:18:46.745Z,85.49
2023-08-15T02:21:15.643Z,86.26
2023-08-15T02:23:43.500Z,86.43
2023-08-15T02:26:10.717Z,86.31
2023-08-15T02:28:38.285Z,86.28
2023-08-15T02:31:06.724Z,86.12
2023-08-15T02:33:36.302Z,86.55
2023-08-15T02:36:07.294Z,86.46
2023-08-15T02:38:35.413Z,86.16
2023-08-15T02:41:03.692Z,86.14
2023-08-15T02:43:31.572Z,86.34
2023-08-15T02:45:59.988Z,86.87
2023-08-15T02:48:27.973Z,87.40
2023-08-15T02:50:55.230Z,87.55
2023-08-15T02:53:23.972Z,87.73
2023-08-15T02:55:52.310Z,87.85
2023-08-15T02:58:19.783Z,87.89
2023-08-15T03:00:47.514Z,87.63
2023-08-15T03:03:15.726Z,87.45
2023-08-15T03:05:43.089Z,87.36
2023-08-15T03:08:10.375Z,87.25
2023-08-15T03:10:40.194Z,87.40
2023-08-15T03:13:07.472Z,87.63
2023-08-15T03:15:35.703Z,87.44
2023-08-15T03:18:03.198Z,87.17
2023-08-15T03:20:31.202Z,87.26
2023-08-15T03:22:58.360Z,87.45
2023-08-15T03:25:26.639Z,87.50
2023-08-15T03:27:55.868Z,87.22
2023-08-15T03:30:23.171Z,87.15
2023-08-15T03:32:51.745Z,87.31
2023-08-15T03:35:20.699Z,87.00
2023-08-15T03:37:49.886Z,86.94
2023-08-15T03:40:16.996Z,86.62
2023-08-15T03:42:44.690Z,87.29
2023-08-15T03:45:12.805Z,87.13
2023-08-15T03:47:39.946Z,87.79
2023-08-15T03:50:07.611Z,88.16
2023-08-15T03:52:37.298Z,88.68
2023-08-15T03:55:04.611Z,88.98
2023-08-15T03:57:33.636Z,89.53
2023-08-15T04:00:01.536Z,89.55
2023-08-15T04:02:28.696Z,89.42
2023-08-15T04:04:56.669Z,89.32
2023-08-15T04:07:23.869Z,89.19
2023-08-15T04:09:50.936Z,89.22
2023-08-15T04:12:17.989Z,89.14
2023-08-15T04:14:45.388Z,89.08
2023-08-15T04:17:12.608Z,89.24
2023-08-15T04:19:39.721Z,89.19
2023-08-15T04:22:06.790Z,89.37
2023-08-15T04:24:35.267Z,89.87
2023-08-15T04:27:03.087Z,90.17
2023-08-15T04:29:30.340Z,90.57
2023-08-15T04:31:57.571Z,91.09
2023-08-15T04:34:24.697Z,91.32
2023-08-15T04:36:51.900Z,91.34
2023-08-15T04:39:19.494Z,91.61
2023-08-15T04:41:46.658Z,91.92
2023-08-15T04:44:13.760Z,92.13
2023-08-15T04:46:44.001Z,92.39
2023-08-15T04:49:12.299Z,92.64
2023-08-15T04:51:39.361Z,92.96
2023-08-15T04:54:06.735Z,93.00
2023-08-15T04:56:34.070Z,93.07
2023-08-15T04:59:01.252Z,92.91
2023-08-15T05:01:31.787Z,92.96
2023-08-15T05:03:58.869Z,93.56
2023-08-15T05:06:26.113Z,93.91
2023-08-15T05:08:53.827Z,93.99
2023-08-15T05:11:20.956Z,94.17
2023-08-15T05:13:48.067Z,94.41
2023-08-15T05:16:16.770Z,94.38
2023-08-15T05:18:44.001Z,94.67
2023-08-15T05:21:11.108Z,95.15
2023-08-15T05:23:38.295Z,95.54
2023-08-15T05:26:05.443Z,95.78
2023-08-15T05:28:32.669Z,95.44
2023-08-15T05:31:00.808Z,95.73
2023-08-15T05:33:28.343Z,96.06
2023-08-15T05:35:55.477Z,95.70
2023-08-15T05:38:23.060Z,95.50
2023-08-15T05:40:50.243Z,95.02
2023-08-15T05:43:17.357Z,94.65
2023-08-15T05:45:46.980Z,94.25
2023-08-15T05:48:14.180Z,94.50
2023-08-15T05:50:41.583Z,94.18
2023-08-15T05:53:08.801Z,92.85
2023-08-15T05:55:35.974Z,92.12
2023-08-15T05:58:03.130Z,92.21
2023-08-15T06:00:30.374Z,91.51
2023-08-15T06:02:58.418Z,90.74
2023-08-15T06:05:31.909Z,90.31
2023-08-15T06:08:01.050Z,89.95
2023-08-15T06:10:28.507Z,88.80
2023-08-15T06:12:55.665Z,88.19
2023-08-15T06:15:22.700Z,86.67
2023-08-15T06:17:49.863Z,86.68
2023-08-15T06:20:17.189Z,86.30
2023-08-15T06:22:44.353Z,85.09
2023-08-15T06:25:11.496Z,84.39
2023-08-15T06:27:39.118Z,83.82
2023-08-15T06:30:07.044Z,81.96
2023-08-15T06:32:34.256Z,82.40
2023-08-15T06:35:02.808Z,82.58
2023-08-15T06:37:29.940Z,81.92
2023-08-15T06:39:56.977Z,80.98
2023-08-15T06:42:24.779Z,79.59
2023-08-15T06:45:17.717Z,80.81
2023-08-15T06:47:44.978Z,81.20
2023-08-15T06:50:12.349Z,80.33
2023-08-15T06:52:39.766Z,79.32
2023-08-15T06:55:08.131Z,78.23
2023-08-15T06:57:35.427Z,79.43
2023-08-15T07:00:02.837Z,78.17
2023-08-15T07:02:31.815Z,76.96
2023-08-15T07:04:58.808Z,77.82
2023-08-15T07:07:26.050Z,77.44
2023-08-15T07:09:53.270Z,75.02
2023-08-15T07:12:20.564Z,75.50
2023-08-15T07:14:47.872Z,76.62
2023-08-15T07:17:15.236Z,75.88
2023-08-15T07:19:42.385Z,74.92
2023-08-15T07:22:11.483Z,73.92
2023-08-15T07:24:38.667Z,74.13
2023-08-15T07:27:05.828Z,73.72
2023-08-15T07:29:34.112Z,73.03
2023-08-15T07:32:01.417Z,71.74
2023-08-15T07:34:28.903Z,71.29
2023-08-15T07:36:56.077Z,70.17
2023-08-15T07:39:23.265Z,70.36
2023-08-15T07:41:50.371Z,70.32
2023-08-15T07:44:17.510Z,70.75
2023-08-15T07:46:44.656Z,70.46
2023-08-15T07:49:11.770Z,69.33
2023-08-15T07:51:38.970Z,69.10
2023-08-15T07:54:06.492Z,68.67
2023-08-15T07:56:35.456Z,68.01
2023-08-15T07:59:04.753Z,68.38
2023-08-15T08:01:32.073Z,66.52
2023-08-15T08:03:59.334Z,66.94
2023-08-15T08:06:39.123Z,66.19
2023-08-15T08:09:10.148Z,66.68
2023-08-15T08:11:37.501Z,66.71
2023-08-15T08:14:05.095Z,65.29
2023-08-15T08:16:32.397Z,64.20
2023-08-15T08:18:59.514Z,64.49
2023-08-15T08:21:26.787Z,65.16
2023-08-15T08:23:54.038Z,65.49
2023-08-15T08:26:21.226Z,64.90
2023-08-15T08:28:49.661Z,64.55
2023-08-15T08:31:16.811Z,62.47
2023-08-15T08:33:43.987Z,62.82
2023-08-15T08:36:11.138Z,63.30
2023-08-15T08:38:38.997Z,63.76
2023-08-15T08:41:06.537Z,61.43
2023-08-15T08:43:35.215Z,61.32
2023-08-15T08:46:02.499Z,61.30
2023-08-15T08:48:29.659Z,60.24
2023-08-15T08:50:56.885Z,60.78
2023-08-15T08:53:24.488Z,60.52
2023-08-15T08:55:52.277Z,59.94
2023-08-15T08:58:20.343Z,60.50
2023-08-15T09:00:50.516Z,59.83
2023-08-15T09:03:20.086Z,59.19
2023-08-15T09:05:47.712Z,59.18
2023-08-15T09:08:15.291Z,58.06
2023-08-15T09:10:42.754Z,59.39
2023-08-15T09:13:09.941Z,57.69
2023-08-15T09:15:38.246Z,56.44
2023-08-15T09:18:08.347Z,56.44
2023-08-15T09:20:41.673Z,54.90
2023-08-15T09:23:10.197Z,54.96
2023-08-15T09:25:38.422Z,55.13
2023-08-15T09:28:09.303Z,55.31
2023-08-15T09:30:38.514Z,55.93
2023-08-15T09:33:06.509Z,54.39
2023-08-15T09:35:37.341Z,55.82
2023-08-15T09:38:09.011Z,55.39
2023-08-15T09:40:36.470Z,54.68
2023-08-15T09:43:04.699Z,54.02
2023-08-15T09:45:31.837Z,54.24
2023-08-15T09:47:59.036Z,52.79
2023-08-15T09:50:26.277Z,53.01
2023-08-15T09:52:53.412Z,53.68
2023-08-15T09:55:20.726Z,53.03
2023-08-15T09:57:48.410Z,51.77
2023-08-15T10:00:18.890Z,52.04
2023-08-15T10:02:53.539Z,50.83
2023-08-15T10:05:22.571Z,49.18
2023-08-15T10:07:50.608Z,49.66
2023-08-15T10:10:17.732Z,50.88
2023-08-15T10:12:45.148Z,50.07
2023-08-15T10:15:12.565Z,48.72
2023-08-15T10:17:39.791Z,48.75
2023-08-15T10:20:12.252Z,48.00
2023-08-15T10:22:41.191Z,48.05
2023-08-15T10:25:23.857Z,45.83
2023-08-15T10:27:52.412Z,47.75
2023-08-15T10:30:37.780Z,47.23
2023-08-15T10:33:16.749Z,46.77
2023-08-15T10:35:51.207Z,46.64
2023-08-15T10:38:23.750Z,47.36
2023-08-15T10:40:52.754Z,46.69
2023-08-15T10:43:27.854Z,46.97
2023-08-15T10:46:01.494Z,45.64
2023-08-15T10:48:51.753Z,45.31
2023-08-15T10:51:30.500Z,45.85
2023-08-15T10:54:02.748Z,46.32
2023-08-15T10:56:31.487Z,45.54
2023-08-15T10:58:59.367Z,45.13
2023-08-15T11:01:30.954Z,45.02
2023-08-15T11:03:58.720Z,44.03
2023-08-15T11:06:25.969Z,44.61
2023-08-15T11:08:54.678Z,44.48
2023-08-15T11:11:21.798Z,45.47
2023-08-15T11:13:50.102Z,45.86
2023-08-15T11:16:19.075Z,44.88
2023-08-15T11:18:46.453Z,43.92
2023-08-15T11:21:14.673Z,44.37
2023-08-15T11:23:41.879Z,45.08
2023-08-15T11:26:10.467Z,44.57
2023-08-15T11:28:38.198Z,43.90
2023-08-15T11:31:21.869Z,43.44
2023-08-15T11:33:53.408Z,43.39
2023-08-15T11:36:23.789Z,43.55
2023-08-15T11:38:51.005Z,43.64
2023-08-15T11:41:18.149Z,43.55
2023-08-15T11:43:45.781Z,43.60
2023-08-15T11:46:12.926Z,43.75
2023-08-15T11:48:45.556Z,41.92
2023-08-15T11:51:12.756Z,42.73
2023-08-15T11:53:49.989Z,43.42
2023-08-15T11:56:17.205Z,42.81
2023-08-15T11:58:45.804Z,42.54
2023-08-15T12:01:14.683Z,42.64
2023-08-15T12:03:41.946Z,43.07
2023-08-15T12:06:12.149Z,42.95
2023-08-15T12:08:41.115Z,42.70
2023-08-15T12:11:12.612Z,43.29
2023-08-15T12:13:41.062Z,42.23
2023-08-15T12:16:08.842Z,42.65
2023-08-15T12:18:36.833Z,44.12
2023-08-15T12:21:06.072Z,42.95
2023-08-15T12:23:33.273Z,42.27
2023-08-15T12:26:00.436Z,41.69
2023-08-15T12:28:29.198Z,42.19
2023-08-15T12:30:56.915Z,40.52
2023-08-15T12:35:54.285Z,41.10
2023-08-15T12:38:22.245Z,41.55
2023-08-15T12:40:51.769Z,41.01
2023-08-15T12:43:18.851Z,41.71
2023-08-15T12:45:46.365Z,40.88
2023-08-15T12:48:13.710Z,40.96
2023-08-15T12:50:41.418Z,42.26
2023-08-15T12:53:10.366Z,42.11
2023-08-15T12:55:37.795Z,41.72
2023-08-15T12:58:05.207Z,40.85
2023-08-15T13:00:32.768Z,40.04
2023-08-15T13:03:00.049Z,39.73
2023-08-15T13:05:28.034Z,40.58
2023-08-15T13:07:57.425Z,42.17
2023-08-15T13:10:24.528Z,40.58
2023-08-15T13:12:53.461Z,40.44
2023-08-15T13:15:20.685Z,40.69
2023-08-15T13:17:47.983Z,39.83
2023-08-15T13:20:16.000Z,42.40
2023-08-15T13:22:43.279Z,41.38
2023-08-15T13:25:10.872Z,40.68
2023-08-15T13:27:38.079Z,39.61
2023-08-15T13:30:06.065Z,40.19
2023-08-15T13:32:33.874Z,42.99
2023-08-15T13:35:01.201Z,45.62
2023-08-15T13:37:28.312Z,47.36
2023-08-15T13:39:55.604Z,48.20
2023-08-15T13:42:35.947Z,46.43
2023-08-15T13:45:10.095Z,47.81
2023-08-15T13:47:39.564Z,50.18
2023-08-15T13:50:08.027Z,50.41
2023-08-15T13:52:38.443Z,49.83
2023-08-15T13:55:06.693Z,49.56
2023-08-15T13:57:34.005Z,50.88
2023-08-15T14:00:06.670Z,51.43
2023-08-15T14:02:39.497Z,53.09
2023-08-15T14:05:07.489Z,54.30
2023-08-15T14:07:34.643Z,54.87
2023-08-15T14:10:01.824Z,55.23
2023-08-15T14:12:29.101Z,51.20
2023-08-15T14:14:56.317Z,48.12
2023-08-15T14:17:24.616Z,47.64
2023-08-15T14:19:51.757Z,45.42
2023-08-15T14:22:19.837Z,47.16
2023-08-15T14:24:51.170Z,50.66
2023-08-15T14:27:20.837Z,52.50
2023-08-15T14:29:50.969Z,53.78
2023-08-15T14:32:18.597Z,54.98
2023-08-15T14:34:45.868Z,54.10
2023-08-15T14:37:13.070Z,53.85
2023-08-15T14:39:40.212Z,55.22
2023-08-15T14:42:07.377Z,56.35
2023-08-15T14:44:35.820Z,56.95
2023-08-15T14:47:02.867Z,57.64
2023-08-15T14:49:33.626Z,57.70
2023-08-15T14:52:03.453Z,57.35
2023-08-15T14:54:30.687Z,57.14
2023-08-15T14:56:57.879Z,58.23
2023-08-15T14:59:25.018Z,57.86
2023-08-15T15:01:52.952Z,57.12
2023-08-15T15:04:20.216Z,55.62
2023-08-15T15:06:47.774Z,54.53
2023-08-15T15:09:14.914Z,52.64
2023-08-15T15:11:42.018Z,52.81
2023-08-15T15:14:09.097Z,53.66
2023-08-15T15:16:36.360Z,55.10
2023-08-15T15:19:03.498Z,57.00
2023-08-15T15:21:32.382Z,57.71
2023-08-15T15:23:59.462Z,58.47
2023-08-15T15:26:26.572Z,59.70
2023-08-15T15:28:53.871Z,59.91
2023-08-15T15:31:21.431Z,60.37
2023-08-15T15:33:48.613Z,61.61
2023-08-15T15:36:16.369Z,61.74
2023-08-15T15:38:43.562Z,61.71
2023-08-15T15:41:10.741Z,61.40
2023-08-15T15:43:37.959Z,62.05
2023-08-15T15:46:05.143Z,63.37
2023-08-15T15:48:34.559Z,63.90
2023-08-15T15:51:02.784Z,64.13
2023-08-15T15:53:31.849Z,64.40
2023-08-15T15:55:59.128Z,64.26
2023-08-15T15:58:26.245Z,63.87
2023-08-15T16:00:56.745Z,63.95
2023-08-15T16:03:24.581Z,62.85
2023-08-15T16:05:51.834Z,62.91
2023-08-15T16:08:19.009Z,63.36
2023-08-15T16:10:46.152Z,63.49
2023-08-15T16:13:13.316Z,63.86
2023-08-15T16:15:40.574Z,64.83
2023-08-15T16:18:07.856Z,66.37
2023-08-15T16:20:35.063Z,66.88
2023-08-15T16:23:02.657Z,67.33
2023-08-15T16:25:31.462Z,68.36
2023-08-15T16:28:00.328Z,69.07
2023-08-15T16:30:28.470Z,69.95
2023-08-15T16:32:55.829Z,70.56
2023-08-15T16:35:23.862Z,71.20
2023-08-15T16:37:52.213Z,72.09
2023-08-15T16:40:19.264Z,72.30
2023-08-15T16:42:46.561Z,72.80
2023-08-15T16:45:13.700Z,72.89
2023-08-15T16:47:40.806Z,73.22
2023-08-15T16:50:08.502Z,72.90
2023-08-15T16:52:35.652Z,71.57
2023-08-15T16:55:02.803Z,70.14
2023-08-15T16:57:30.699Z,68.67
2023-08-15T16:59:57.758Z,68.66
2023-08-15T17:02:25.408Z,67.47
2023-08-15T17:04:52.980Z,67.81
2023-08-15T17:07:20.139Z,67.40
2023-08-15T17:09:47.341Z,66.33
2023-08-15T17:12:14.448Z,66.13
2023-08-15T17:14:41.932Z,64.27
2023-08-15T17:17:09.030Z,61.08
2023-08-15T17:19:36.941Z,60.44
2023-08-15T17:22:04.091Z,60.30
2023-08-15T17:24:31.216Z,60.60
2023-08-15T17:26:58.442Z,60.80
2023-08-15T17:29:26.364Z,60.70
2023-08-15T17:31:53.572Z,59.93
2023-08-15T17:34:20.750Z,60.02
2023-08-15T17:36:47.921Z,59.48
2023-08-15T17:39:15.577Z,59.52
2023-08-15T17:41:45.664Z,59.06
2023-08-15T17:44:13.084Z,58.86
2023-08-15T17:46:40.264Z,58.70
2023-08-15T17:49:07.496Z,58.73
2023-08-15T17:51:34.623Z,58.49
2023-08-15T17:54:01.798Z,58.44
2023-08-15T17:56:28.952Z,58.32
2023-08-15T17:58:56.054Z,57.99
2023-08-15T18:01:23.627Z,58.09
2023-08-15T18:03:50.961Z,58.39
2023-08-15T18:06:18.361Z,58.41
2023-08-15T18:08:45.560Z,58.48
2023-08-15T18:11:12.643Z,58.76
2023-08-15T18:13:40.320Z,58.64
2023-08-15T18:16:07.492Z,58.68
2023-08-15T18:18:35.915Z,58.45
2023-08-15T18:21:03.470Z,58.80
2023-08-15T18:23:30.612Z,58.81
2023-08-15T18:25:57.767Z,58.80
2023-08-15T18:28:24.900Z,59.09
2023-08-15T18:30:52.074Z,59.45
2023-08-15T18:33:19.651Z,59.86
2023-08-15T18:35:46.827Z,60.31
2023-08-15T18:38:13.961Z,60.75
2023-08-15T18:40:42.922Z,60.98
2023-08-15T18:43:09.969Z,61.08
2023-08-15T18:45:44.854Z,61.46
2023-08-15T18:48:12.686Z,61.55
2023-08-15T18:50:47.749Z,61.48
2023-08-15T18:53:14.813Z,61.79
2023-08-15T18:55:41.981Z,61.92
2023-08-15T18:58:10.737Z,62.38
2023-08-15T19:00:39.192Z,63.10
2023-08-15T19:03:06.841Z,63.93
2023-08-15T19:05:36.890Z,64.09
2023-08-15T19:08:04.086Z,64.31
2023-08-15T19:10:31.247Z,65.13
2023-08-15T19:12:58.444Z,65.97
2023-08-15T19:15:25.839Z,66.37
2023-08-15T19:17:53.566Z,67.04
2023-08-15T19:20:42.374Z,67.44
2023-08-15T19:23:11.380Z,67.89
2023-08-15T19:25:39.091Z,68.51
2023-08-15T19:28:06.811Z,68.77
2023-08-15T19:30:34.758Z,68.64
2023-08-15T19:33:02.031Z,69.25
2023-08-15T19:35:29.235Z,68.82
2023-08-15T19:37:56.631Z,69.37
2023-08-15T19:40:23.867Z,69.35
2023-08-15T19:42:51.941Z,69.97
2023-08-15T19:45:19.715Z,70.71
2023-08-15T19:47:47.088Z,71.26
2023-08-15T19:50:16.431Z,71.64
2023-08-15T19:52:43.666Z,71.72
2023-08-15T19:55:12.134Z,71.89
2023-08-15T19:57:41.698Z,72.73
2023-08-15T20:00:12.022Z,73.47
2023-08-15T20:02:41.085Z,73.67
2023-08-15T20:05:09.614Z,74.08
2023-08-15T20:07:38.481Z,74.13
2023-08-15T20:10:11.523Z,74.08
2023-08-15T20:12:40.183Z,74.45
2023-08-15T20:15:08.992Z,74.72
2023-08-15T20:17:36.189Z,75.13
2023-08-15T20:20:03.654Z,75.08
2023-08-15T20:22:32.621Z,74.94
2023-08-15T20:24:59.596Z,75.42
2023-08-15T20:27:27.926Z,75.77
2023-08-15T20:29:58.126Z,76.12
2023-08-15T20:32:26.159Z,76.48
2023-08-15T20:34:54.263Z,76.70
2023-08-15T20:37:21.541Z,77.11
2023-08-15T20:39:49.517Z,77.57
2023-08-15T20:42:18.500Z,77.93
2023-08-15T20:44:46.069Z,78.06
2023-08-15T20:47:13.223Z,78.16
2023-08-15T20:49:42.559Z,78.09
2023-08-15T20:52:11.311Z,78.11
2023-08-15T20:54:38.590Z,78.10
2023-08-15T20:57:05.891Z,77.91
2023-08-15T20:59:34.774Z,78.50
2023-08-15T21:02:03.422Z,78.88
2023-08-15T21:04:30.770Z,79.41
2023-08-15T21:06:58.070Z,79.71
2023-08-15T21:09:25.812Z,80.27
2023-08-15T21:11:53.035Z,80.46
2023-08-15T21:14:20.251Z,80.62
2023-08-15T21:16:47.579Z,80.85
2023-08-15T21:19:14.758Z,80.93
2023-08-15T21:21:41.913Z,80.99
2023-08-15T21:24:09.165Z,80.73
2023-08-15T21:26:37.408Z,80.73
2023-08-15T21:29:06.016Z,81.24
2023-08-15T21:31:34.865Z,81.59
2023-08-15T21:34:02.071Z,81.55
2023-08-15T21:36:29.258Z,81.48
2023-08-15T21:38:56.445Z,81.82
2023-08-15T21:41:24.229Z,81.81
2023-08-15T21:43:51.335Z,81.83
2023-08-15T21:46:18.576Z,82.28
2023-08-15T21:48:45.762Z,82.43
2023-08-15T21:51:12.980Z,82.89
2023-08-15T21:53:40.069Z,82.91
2023-08-15T21:56:07.381Z,82.97
2023-08-15T21:58:34.567Z,82.88
2023-08-15T22:01:01.807Z,83.02
2023-08-15T22:03:31.433Z,82.86
2023-08-15T22:05:58.666Z,82.85
2023-08-15T22:08:25.904Z,82.84
2023-08-15T22:10:53.117Z,82.97
2023-08-15T22:13:20.310Z,83.29
2023-08-15T22:15:47.616Z,83.50
2023-08-15T22:18:20.474Z,83.20
2023-08-15T22:20:49.942Z,82.73
2023-08-15T22:23:17.160Z,82.42
2023-08-15T22:25:47.920Z,82.78
2023-08-15T22:28:15.945Z,83.00
2023-08-15T22:30:43.966Z,83.22
2023-08-15T22:33:11.147Z,83.39
2023-08-15T22:35:40.759Z,83.50
2023-08-15T22:38:07.955Z,83.52
2023-08-15T22:40:35.551Z,83.48
2023-08-15T22:43:02.719Z,83.45
2023-08-15T22:45:31.961Z,83.31
2023-08-15T22:47:59.169Z,83.13
2023-08-15T22:50:26.458Z,83.25
2023-08-15T22:52:56.972Z,83.38
2023-08-15T22:55:24.234Z,83.24
2023-08-15T22:57:51.421Z,83.37
2023-08-15T23:00:18.618Z,83.67
2023-08-15T23:02:45.950Z,83.66
2023-08-15T23:05:13.302Z,83.74
2023-08-15T23:07:42.409Z,83.72
2023-08-15T23:10:09.890Z,83.76
2023-08-15T23:12:37.165Z,83.76
2023-08-15T23:15:05.108Z,83.35
2023-08-15T23:17:32.348Z,83.08
2023-08-15T23:20:00.436Z,83.25
2023-08-15T23:22:27.629Z,83.16
2023-08-15T23:24:54.892Z,83.17
2023-08-15T23:27:22.508Z,83.51
2023-08-15T23:29:50.110Z,83.55
2023-08-15T23:32:17.232Z,83.40
2023-08-15T23:34:44.434Z,83.67
2023-08-15T23:37:12.914Z,83.78
2023-08-15T23:39:41.451Z,83.72
2023-08-15T23:42:08.759Z,83.48
2023-08-15T23:44:35.942Z,83.65
2023-08-15T23:47:03.337Z,83.55
2023-08-15T23:49:30.555Z,84.01
2023-08-15T23:51:57.929Z,83.54
2023-08-15T23:54:25.771Z,83.53
2023-08-15T23:56:52.935Z,84.46
2023-08-15T23:59:20.133Z,84.59
